Superfast Canarias — 9HA3275 — position and weather

sailwx.info

Track history (hours):
 
Tides and Currents Weather Stations Pressure Air Temp Water Temp Dewpoint Dewpoint Depression Visibility Wind Speed Wind Dir Waves Ship Positions

Superfast Canarias

Last reported at 2017-Nov-16 21:37 UTC. Time now 2017-Nov-22 22:12 UTC.
Position N 44°13' E 013°13'.

Length 185 m; draft 6.8 m.

Type: Cargo ship. MMSI: 224665000.

Date/timePositionNaut miles runAvg speedWind from/ knotsBaromVisibWave heightAir tempDewpointWater temp
2017-Nov-16 21:37N 44°13' E 013°13'217.7
2017-Nov-16 21:30N 44°14' E 013°12'917.6
2017-Nov-16 21:01N 44°23' E 013°08'917.5
2017-Nov-16 20:30N 44°31' E 013°04'917.3
2017-Nov-16 20:00N 44°39' E 013°00'917.3
2017-Nov-16 19:31N 44°47' E 012°56'917.4
2017-Nov-16 19:00N 44°55' E 012°50'917.5
2017-Nov-16 18:30N 45°03' E 012°45'817.0
2017-Nov-16 18:00N 45°09' E 012°37'917.8
2017-Nov-16 17:31N 45°16' E 012°28'815.3
2017-Nov-16 17:00N 45°20' E 012°20'4 7.6
2017-Nov-16 16:29N 45°23' E 012°16'3 5.2
2017-Nov-16 15:59N 45°26' E 012°15'0 0.0
2017-Nov-16 15:29N 45°26' E 012°15'0 0.0
2017-Nov-16 14:59N 45°26' E 012°15'0 0.0
2017-Nov-16 14:29N 45°26' E 012°15'0 0.0
2017-Nov-16 13:59N 45°26' E 012°15'0 0.0
2017-Nov-16 13:29N 45°26' E 012°15'0 0.0
2017-Nov-16 12:59N 45°26' E 012°15'0 0.0
2017-Nov-16 12:29N 45°26' E 012°15'0 0.0
2017-Nov-16 11:59N 45°26' E 012°15'0 0.0
2017-Nov-16 11:29N 45°26' E 012°15'0 0.0
2017-Nov-16 10:59N 45°26' E 012°15'0 0.0
2017-Nov-16 10:29N 45°26' E 012°15'0 0.0
2017-Nov-16 09:59N 45°26' E 012°15'0 0.0
2017-Nov-16 09:29N 45°26' E 012°15'0 0.0
2017-Nov-16 08:59N 45°26' E 012°15'0 0.0
2017-Nov-16 08:29N 45°26' E 012°15'0 0.0
2017-Nov-16 07:59N 45°26' E 012°15'0 0.0
2017-Nov-16 07:29N 45°26' E 012°15'0 0.0
2017-Nov-16 06:59N 45°26' E 012°15'0 0.0
2017-Nov-16 06:31N 45°26' E 012°15'2 3.0
2017-Nov-16 06:01N 45°24' E 012°16'4 7.9
2017-Nov-16 05:31N 45°20' E 012°18'4 8.8
2017-Nov-16 05:00N 45°19' E 012°24'715.0
2017-Nov-16 04:30N 45°16' E 012°33'918.4
2017-Nov-16 04:01N 45°10' E 012°44'918.6
2017-Nov-16 03:31N 45°06' E 012°55'918.7
2017-Nov-16 03:00N 45°01' E 013°07'918.6
2017-Nov-16 02:31N 44°57' E 013°19'918.4
2017-Nov-16 02:01N 44°50' E 013°28'918.5
2017-Nov-16 01:31N 44°43' E 013°35'918.3
2017-Nov-16 01:01N 44°35' E 013°42'918.3
2017-Nov-16 00:31N 44°27' E 013°49'918.1
2017-Nov-16 00:00N 44°20' E 013°56'918.3
2017-Nov-15 23:30N 44°12' E 014°03'1218.6
2017-Nov-15 22:51N 44°02' E 014°13'  
2017-Nov-12 15:59N 44°13' E 013°13'918.0
2017-Nov-12 15:31N 44°21' E 013°08'918.1
2017-Nov-12 15:01N 44°29' E 013°05'918.2
2017-Nov-12 14:31N 44°38' E 013°01'918.3
2017-Nov-12 14:01N 44°47' E 012°56'918.3
2017-Nov-12 13:30N 44°55' E 012°50'918.4
2017-Nov-12 13:00N 45°03' E 012°45'917.9
2017-Nov-12 12:30N 45°09' E 012°35'917.8
2017-Nov-12 12:00N 45°16' E 012°27'714.8
2017-Nov-12 11:30N 45°20' E 012°19'4 7.4
2017-Nov-12 11:00N 45°23' E 012°16'2 4.1
2017-Nov-12 10:28N 45°26' E 012°15'0 0.0
2017-Nov-12 09:58N 45°26' E 012°15'0 0.0
2017-Nov-12 09:28N 45°26' E 012°15'0 0.0
2017-Nov-12 08:58N 45°26' E 012°15'0 0.0
2017-Nov-12 08:28N 45°26' E 012°15'0 0.0
2017-Nov-12 07:58N 45°26' E 012°15'0 0.0
2017-Nov-12 07:28N 45°26' E 012°15'0 0.0
2017-Nov-12 06:58N 45°26' E 012°15'0 0.0
2017-Nov-12 06:28N 45°26' E 012°15'0 0.0
2017-Nov-12 05:58N 45°26' E 012°15'0 0.0
2017-Nov-12 05:28N 45°26' E 012°15'0 0.0
2017-Nov-12 04:58N 45°26' E 012°15'0 0.0
2017-Nov-12 04:28N 45°26' E 012°15'0 0.0
2017-Nov-12 03:58N 45°26' E 012°15'0 0.0
2017-Nov-12 03:28N 45°26' E 012°15'0 0.0
2017-Nov-12 02:58N 45°26' E 012°15'0 0.0
2017-Nov-12 02:28N 45°26' E 012°15'0 0.0
2017-Nov-12 01:58N 45°26' E 012°15'0 0.0
2017-Nov-12 01:28N 45°26' E 012°15'0 0.0
2017-Nov-12 00:58N 45°26' E 012°15'0 0.0
2017-Nov-12 00:28N 45°26' E 012°15'0 0.0
2017-Nov-11 23:58N 45°26' E 012°15'0 0.0
2017-Nov-11 23:28N 45°26' E 012°15'0 0.0
2017-Nov-11 22:58N 45°26' E 012°15'0 0.0
2017-Nov-11 22:28N 45°26' E 012°15'0 0.0
2017-Nov-11 21:58N 45°26' E 012°15'0 0.0
2017-Nov-11 21:28N 45°26' E 012°15'0 0.0
2017-Nov-11 20:58N 45°26' E 012°15'0 0.0
2017-Nov-11 20:28N 45°26' E 012°15'0 0.0
2017-Nov-11 19:58N 45°26' E 012°15'0 0.0
2017-Nov-11 19:28N 45°26' E 012°15'0 0.0
2017-Nov-11 18:58N 45°26' E 012°15'0 0.0
2017-Nov-11 18:28N 45°26' E 012°15'0 0.0
2017-Nov-11 17:58N 45°26' E 012°15'0 0.0
2017-Nov-11 17:28N 45°26' E 012°15'0 0.0
2017-Nov-11 16:58N 45°26' E 012°15'0 0.0
2017-Nov-11 16:25N 45°26' E 012°15'0 0.0
2017-Nov-11 15:58N 45°26' E 012°15'0 0.0
2017-Nov-11 15:28N 45°26' E 012°15'0 0.5
2017-Nov-11 15:00N 45°25' E 012°16'4 8.8
2017-Nov-11 14:30N 45°21' E 012°16'5 9.7
2017-Nov-11 14:00N 45°20' E 012°22'2 4.7
2017-Nov-11 13:30N 45°22' E 012°24'0 0.0
2017-Nov-11 13:00N 45°22' E 012°24'0 0.0
2017-Nov-11 12:30N 45°22' E 012°24'0 0.0
2017-Nov-11 12:00N 45°22' E 012°24'0 0.0
2017-Nov-11 11:30N 45°22' E 012°24'0 0.0
2017-Nov-11 11:00N 45°22' E 012°24'0 0.0
2017-Nov-11 10:30N 45°22' E 012°24'0 0.0
2017-Nov-11 10:00N 45°22' E 012°24'0 0.0
2017-Nov-11 09:30N 45°22' E 012°24'0 0.0
2017-Nov-11 09:00N 45°22' E 012°24'0 0.0
2017-Nov-11 08:30N 45°22' E 012°24'0 0.0
2017-Nov-11 08:00N 45°22' E 012°24'0 0.0
2017-Nov-11 07:30N 45°22' E 012°24'0 0.0
2017-Nov-11 07:00N 45°22' E 012°24'0 0.0
2017-Nov-11 06:30N 45°22' E 012°24'0 0.0
2017-Nov-11 06:00N 45°22' E 012°24'0 0.0
2017-Nov-11 05:30N 45°22' E 012°24'0 0.0
2017-Nov-11 05:00N 45°22' E 012°24'1 3.0
2017-Nov-11 04:30N 45°20' E 012°24'2 3.1
2017-Nov-11 04:00N 45°19' E 012°25'713.1
2017-Nov-11 03:30N 45°17' E 012°33'713.5
2017-Nov-11 03:00N 45°12' E 012°40'713.7
2017-Nov-11 02:30N 45°08' E 012°48'713.8
2017-Nov-11 02:01N 45°05' E 012°57'713.8
2017-Nov-11 01:30N 45°02' E 013°06'713.8
2017-Nov-11 01:00N 44°58' E 013°14'713.7
2017-Nov-11 00:30N 44°55' E 013°22'713.6
2017-Nov-11 00:00N 44°50' E 013°28'713.8
2017-Nov-10 23:30N 44°44' E 013°34'713.9
2017-Nov-10 23:01N 44°38' E 013°39'713.8
2017-Nov-10 22:30N 44°32' E 013°44'713.9
2017-Nov-10 22:00N 44°26' E 013°50'714.0
2017-Nov-10 21:30N 44°20' E 013°55'713.9
2017-Nov-10 21:00N 44°15' E 014°00'  
2017-Nov-07 02:34N 44°14' E 013°11'115.4
2017-Nov-07 02:31N 44°15' E 013°10'815.6
2017-Nov-07 02:00N 44°23' E 013°06'815.8
2017-Nov-07 01:31N 44°30' E 013°03'815.7
2017-Nov-07 01:01N 44°38' E 012°60'815.6
2017-Nov-07 00:31N 44°45' E 012°56'815.7
2017-Nov-07 00:01N 44°53' E 012°53'815.4
2017-Nov-06 23:30N 44°59' E 012°48'815.7
2017-Nov-06 23:01N 45°06' E 012°42'815.2
2017-Nov-06 22:31N 45°11' E 012°33'815.2
2017-Nov-06 22:00N 45°16' E 012°26'  
Track history (hours):
 
Tides and Currents Weather Stations Pressure Air Temp Water Temp Dewpoint Dewpoint Depression Visibility Wind Speed Wind Dir Waves Ship Positions

Superfast Canarias

Last reported at 2017-Nov-16 21:37 UTC. Time now 2017-Nov-22 22:12 UTC.
Position N 44°13' E 013°13'.

Length 185 m; draft 6.8 m.

Type: Cargo ship. MMSI: 224665000.

Date/timePositionNaut miles runAvg speedWind from/ knotsBaromVisibWave heightAir tempDewpointWater temp
2017-Nov-16 21:37N 44°13' E 013°13'217.7
2017-Nov-16 21:30N 44°14' E 013°12'917.6
2017-Nov-16 21:01N 44°23' E 013°08'917.5
2017-Nov-16 20:30N 44°31' E 013°04'917.3
2017-Nov-16 20:00N 44°39' E 013°00'917.3
2017-Nov-16 19:31N 44°47' E 012°56'917.4
2017-Nov-16 19:00N 44°55' E 012°50'917.5
2017-Nov-16 18:30N 45°03' E 012°45'817.0
2017-Nov-16 18:00N 45°09' E 012°37'917.8
2017-Nov-16 17:31N 45°16' E 012°28'815.3
2017-Nov-16 17:00N 45°20' E 012°20'4 7.6
2017-Nov-16 16:29N 45°23' E 012°16'3 5.2
2017-Nov-16 15:59N 45°26' E 012°15'0 0.0
2017-Nov-16 15:29N 45°26' E 012°15'0 0.0
2017-Nov-16 14:59N 45°26' E 012°15'0 0.0
2017-Nov-16 14:29N 45°26' E 012°15'0 0.0
2017-Nov-16 13:59N 45°26' E 012°15'0 0.0
2017-Nov-16 13:29N 45°26' E 012°15'0 0.0
2017-Nov-16 12:59N 45°26' E 012°15'0 0.0
2017-Nov-16 12:29N 45°26' E 012°15'0 0.0
2017-Nov-16 11:59N 45°26' E 012°15'0 0.0
2017-Nov-16 11:29N 45°26' E 012°15'0 0.0
2017-Nov-16 10:59N 45°26' E 012°15'0 0.0
2017-Nov-16 10:29N 45°26' E 012°15'0 0.0
2017-Nov-16 09:59N 45°26' E 012°15'0 0.0
2017-Nov-16 09:29N 45°26' E 012°15'0 0.0
2017-Nov-16 08:59N 45°26' E 012°15'0 0.0
2017-Nov-16 08:29N 45°26' E 012°15'0 0.0
2017-Nov-16 07:59N 45°26' E 012°15'0 0.0
2017-Nov-16 07:29N 45°26' E 012°15'0 0.0
2017-Nov-16 06:59N 45°26' E 012°15'0 0.0
2017-Nov-16 06:31N 45°26' E 012°15'2 3.0
2017-Nov-16 06:01N 45°24' E 012°16'4 7.9
2017-Nov-16 05:31N 45°20' E 012°18'4 8.8
2017-Nov-16 05:00N 45°19' E 012°24'715.0
2017-Nov-16 04:30N 45°16' E 012°33'918.4
2017-Nov-16 04:01N 45°10' E 012°44'918.6
2017-Nov-16 03:31N 45°06' E 012°55'918.7
2017-Nov-16 03:00N 45°01' E 013°07'918.6
2017-Nov-16 02:31N 44°57' E 013°19'918.4
2017-Nov-16 02:01N 44°50' E 013°28'918.5
2017-Nov-16 01:31N 44°43' E 013°35'918.3
2017-Nov-16 01:01N 44°35' E 013°42'918.3
2017-Nov-16 00:31N 44°27' E 013°49'918.1
2017-Nov-16 00:00N 44°20' E 013°56'918.3
2017-Nov-15 23:30N 44°12' E 014°03'1218.6
2017-Nov-15 22:51N 44°02' E 014°13'  
2017-Nov-12 15:59N 44°13' E 013°13'918.0
2017-Nov-12 15:31N 44°21' E 013°08'918.1
2017-Nov-12 15:01N 44°29' E 013°05'918.2
2017-Nov-12 14:31N 44°38' E 013°01'918.3
2017-Nov-12 14:01N 44°47' E 012°56'918.3
2017-Nov-12 13:30N 44°55' E 012°50'918.4
2017-Nov-12 13:00N 45°03' E 012°45'917.9
2017-Nov-12 12:30N 45°09' E 012°35'917.8
2017-Nov-12 12:00N 45°16' E 012°27'714.8
2017-Nov-12 11:30N 45°20' E 012°19'4 7.4
2017-Nov-12 11:00N 45°23' E 012°16'2 4.1
2017-Nov-12 10:28N 45°26' E 012°15'0 0.0
2017-Nov-12 09:58N 45°26' E 012°15'0 0.0
2017-Nov-12 09:28N 45°26' E 012°15'0 0.0
2017-Nov-12 08:58N 45°26' E 012°15'0 0.0
2017-Nov-12 08:28N 45°26' E 012°15'0 0.0
2017-Nov-12 07:58N 45°26' E 012°15'0 0.0
2017-Nov-12 07:28N 45°26' E 012°15'0 0.0
2017-Nov-12 06:58N 45°26' E 012°15'0 0.0
2017-Nov-12 06:28N 45°26' E 012°15'0 0.0
2017-Nov-12 05:58N 45°26' E 012°15'0 0.0
2017-Nov-12 05:28N 45°26' E 012°15'0 0.0
2017-Nov-12 04:58N 45°26' E 012°15'0 0.0
2017-Nov-12 04:28N 45°26' E 012°15'0 0.0
2017-Nov-12 03:58N 45°26' E 012°15'0 0.0
2017-Nov-12 03:28N 45°26' E 012°15'0 0.0
2017-Nov-12 02:58N 45°26' E 012°15'0 0.0
2017-Nov-12 02:28N 45°26' E 012°15'0 0.0
2017-Nov-12 01:58N 45°26' E 012°15'0 0.0
2017-Nov-12 01:28N 45°26' E 012°15'0 0.0
2017-Nov-12 00:58N 45°26' E 012°15'0 0.0
2017-Nov-12 00:28N 45°26' E 012°15'0 0.0
2017-Nov-11 23:58N 45°26' E 012°15'0 0.0
2017-Nov-11 23:28N 45°26' E 012°15'0 0.0
2017-Nov-11 22:58N 45°26' E 012°15'0 0.0
2017-Nov-11 22:28N 45°26' E 012°15'0 0.0
2017-Nov-11 21:58N 45°26' E 012°15'0 0.0
2017-Nov-11 21:28N 45°26' E 012°15'0 0.0
2017-Nov-11 20:58N 45°26' E 012°15'0 0.0
2017-Nov-11 20:28N 45°26' E 012°15'0 0.0
2017-Nov-11 19:58N 45°26' E 012°15'0 0.0
2017-Nov-11 19:28N 45°26' E 012°15'0 0.0
2017-Nov-11 18:58N 45°26' E 012°15'0 0.0
2017-Nov-11 18:28N 45°26' E 012°15'0 0.0
2017-Nov-11 17:58N 45°26' E 012°15'0 0.0
2017-Nov-11 17:28N 45°26' E 012°15'0 0.0
2017-Nov-11 16:58N 45°26' E 012°15'0 0.0
2017-Nov-11 16:25N 45°26' E 012°15'0 0.0
2017-Nov-11 15:58N 45°26' E 012°15'0 0.0
2017-Nov-11 15:28N 45°26' E 012°15'0 0.5
2017-Nov-11 15:00N 45°25' E 012°16'4 8.8
2017-Nov-11 14:30N 45°21' E 012°16'5 9.7
2017-Nov-11 14:00N 45°20' E 012°22'2 4.7
2017-Nov-11 13:30N 45°22' E 012°24'0 0.0
2017-Nov-11 13:00N 45°22' E 012°24'0 0.0
2017-Nov-11 12:30N 45°22' E 012°24'0 0.0
2017-Nov-11 12:00N 45°22' E 012°24'0 0.0
2017-Nov-11 11:30N 45°22' E 012°24'0 0.0
2017-Nov-11 11:00N 45°22' E 012°24'0 0.0
2017-Nov-11 10:30N 45°22' E 012°24'0 0.0
2017-Nov-11 10:00N 45°22' E 012°24'0 0.0
2017-Nov-11 09:30N 45°22' E 012°24'0 0.0
2017-Nov-11 09:00N 45°22' E 012°24'0 0.0
2017-Nov-11 08:30N 45°22' E 012°24'0 0.0
2017-Nov-11 08:00N 45°22' E 012°24'0 0.0
2017-Nov-11 07:30N 45°22' E 012°24'0 0.0
2017-Nov-11 07:00N 45°22' E 012°24'0 0.0
2017-Nov-11 06:30N 45°22' E 012°24'0 0.0
2017-Nov-11 06:00N 45°22' E 012°24'0 0.0
2017-Nov-11 05:30N 45°22' E 012°24'0 0.0
2017-Nov-11 05:00N 45°22' E 012°24'1 3.0
2017-Nov-11 04:30N 45°20' E 012°24'2 3.1
2017-Nov-11 04:00N 45°19' E 012°25'713.1
2017-Nov-11 03:30N 45°17' E 012°33'713.5
2017-Nov-11 03:00N 45°12' E 012°40'713.7
2017-Nov-11 02:30N 45°08' E 012°48'713.8
2017-Nov-11 02:01N 45°05' E 012°57'713.8
2017-Nov-11 01:30N 45°02' E 013°06'713.8
2017-Nov-11 01:00N 44°58' E 013°14'713.7
2017-Nov-11 00:30N 44°55' E 013°22'713.6
2017-Nov-11 00:00N 44°50' E 013°28'713.8
2017-Nov-10 23:30N 44°44' E 013°34'713.9
2017-Nov-10 23:01N 44°38' E 013°39'713.8
2017-Nov-10 22:30N 44°32' E 013°44'713.9
2017-Nov-10 22:00N 44°26' E 013°50'714.0
2017-Nov-10 21:30N 44°20' E 013°55'713.9
2017-Nov-10 21:00N 44°15' E 014°00'  
2017-Nov-07 02:34N 44°14' E 013°11'115.4
2017-Nov-07 02:31N 44°15' E 013°10'815.6
2017-Nov-07 02:00N 44°23' E 013°06'815.8
2017-Nov-07 01:31N 44°30' E 013°03'815.7
2017-Nov-07 01:01N 44°38' E 012°60'815.6
2017-Nov-07 00:31N 44°45' E 012°56'815.7
2017-Nov-07 00:01N 44°53' E 012°53'815.4
2017-Nov-06 23:30N 44°59' E 012°48'815.7
2017-Nov-06 23:01N 45°06' E 012°42'815.2
2017-Nov-06 22:31N 45°11' E 012°33'815.2
2017-Nov-06 22:00N 45°16' E 012°26'  

Dump ship's entire track history